Date,TemperatureHighF,TemperatureAvgF,TemperatureLowF,DewpointHighF,DewpointAvgF,DewpointLowF,HumidityHigh,HumidityAvg,HumidityLow,PressureMaxIn,PressureMinIn,WindSpeedMaxMPH,WindSpeedAvgMPH,GustSpeedMaxMPH,PrecipitationSumIn
2013-2-12,73.4,67.3,60.6,70.0,65.4,59.2,96,94,88,29.93,29.77,0,0,0,0.31
2013-2-13,68.2,52.9,40.8,66.3,50.5,38.9,95,92,82,30.08,29.78,0,0,0,0.24
2013-2-14,82.4,51.1,37.2,58.7,42.8,33.7,97,78,37,30.18,30.05,0,0,0,0.00
2013-2-15,69.4,49.0,32.7,45.2,38.9,30.1,93,72,36,30.19,30.05,0,0,0,0.00
2013-2-16,54.7,46.6,30.4,41.1,28.6,18.9,74,52,27,30.31,30.10,0,0,0,0.00
2013-2-17,61.3,40.6,25.7,34.0,26.2,19.2,82,59,31,30.40,30.28,0,0,0,0.00
2013-2-18,67.1,50.5,31.8,54.0,41.7,26.1,91,73,52,30.30,30.03,0,0,0,0.00
2013-2-19,69.1,59.7,44.4,59.9,46.4,29.4,94,65,30,30.22,29.98,0,0,0,0.29
2013-2-20,60.4,46.9,38.1,32.2,28.8,25.6,73,51,30,30.29,30.09,0,0,0,0.00
2013-2-21,66.0,56.0,37.9,63.1,48.0,30.2,92,75,60,30.09,29.88,0,0,0,0.00
2013-2-22,67.8,65.5,62.4,66.3,62.7,57.8,95,91,81,29.99,29.86,0,0,0,0.89
2013-2-23,58.1,56.7,54.1,56.6,55.1,52.1,96,95,92,29.97,29.77,0,0,0,1.04
2013-2-24,70.0,57.9,47.1,59.6,53.4,45.8,96,86,67,30.00,29.82,0,0,0,0.31
2013-2-25,66.4,60.9,57.0,65.3,59.6,55.6,97,96,93,29.86,29.51,0,0,0,2.61
2013-2-26,65.7,57.6,49.3,63.4,47.3,42.2,97,70,47,29.92,29.54,0,0,0,0.00
2013-2-27,69.4,56.1,43.2,48.1,44.9,40.2,91,68,46,30.04,29.93,0,0,0,0.00
2013-2-28,59.5,49.6,39.7,43.6,36.7,31.4,89,63,36,30.11,30.00,0,0,0,0.00
2013-3-1,61.0,47.3,36.1,38.6,33.2,28.5,83,60,37,30.17,30.01,0,0,0,0.00
2013-3-2,48.4,39.0,29.1,30.7,26.9,23.1,82,63,49,30.23,30.11,0,0,0,0.00
2013-3-3,55.8,40.2,27.3,27.1,24.1,19.6,80,55,30,30.25,30.14,0,0,0,0.00
2013-3-4,69.1,50.2,30.0,52.5,41.7,24.8,90,74,52,30.18,29.99,0,0,0,0.00
2013-3-5,72.9,61.6,46.4,62.0,52.1,37.2,85,72,53,30.16,29.95,0,0,0,0.00
2013-3-6,62.6,48.7,39.4,38.0,31.2,27.8,82,53,30,30.29,30.16,0,0,0,0.00
2013-3-7,67.6,47.5,33.4,42.5,34.4,26.1,81,63,35,30.35,30.22,0,0,0,0.00
2013-3-8,74.8,52.2,33.6,45.3,38.1,29.5,89,63,29,30.32,30.19,0,0,0,0.00
2013-3-9,73.8,57.1,42.4,57.0,49.3,37.9,92,77,45,30.22,30.04,0,0,0,0.00
2013-3-10,74.8,65.4,57.0,64.4,59.9,54.5,93,83,70,30.06,29.94,0,0,0,0.00
2013-3-11,66.2,56.9,42.4,64.7,52.8,39.3,95,86,71,30.00,29.85,0,0,0,0.35
2013-3-12,67.6,51.6,39.4,41.7,38.4,35.1,92,64,37,30.20,30.00,0,0,0,0.00
2013-3-13,43.9,42.3,40.8,36.1,35.6,35.1,80,77,74,30.22,30.20,0,0,0,0.00
2013-3-17,76.8,67.3,57.4,65.3,60.6,54.8,93,80,62,30.02,29.90,0,0,0,0.00
2013-3-18,83.7,70.0,59.7,71.1,64.7,56.8,94,84,64,29.93,29.79,0,0,0,0.00
2013-3-19,80.8,66.2,57.2,65.1,52.5,43.1,94,64,36,30.05,29.89,0,0,0,0.00
2013-3-20,67.3,58.1,43.2,43.8,37.5,30.3,62,47,30,30.12,29.98,0,0,0,0.00
2013-3-21,71.4,53.5,39.0,37.8,32.4,28.3,71,47,24,30.09,29.90,0,0,0,0.00
2013-3-22,70.9,58.2,46.6,57.7,49.5,37.5,84,73,58,29.93,29.85,0,0,0,0.02
2013-3-23,75.0,65.8,60.4,68.9,61.8,52.7,96,87,75,29.89,29.60,0,0,0,0.69
2013-3-24,82.0,67.1,48.4,68.8,56.3,33.2,96,71,39,29.95,29.57,0,0,0,0.02
2013-3-25,59.5,48.4,36.9,33.4,27.5,21.1,72,47,25,30.23,29.95,0,0,0,0.00
2013-3-26,58.1,45.3,33.3,29.4,26.8,24.5,73,50,31,30.38,30.23,0,0,0,0.00
2013-3-27,66.0,45.6,28.2,39.6,30.1,22.2,83,58,30,30.45,30.29,0,0,0,0.00
2013-3-28,75.0,51.4,33.1,42.9,35.3,28.3,89,59,26,30.37,30.25,0,0,0,0.00
2013-3-29,76.8,55.9,36.7,53.6,43.6,31.7,88,66,40,30.35,30.22,0,0,0,0.00
2013-3-30,79.9,61.2,46.2,58.5,51.3,42.5,92,72,42,30.23,30.05,0,0,0,0.00
2013-3-31,82.9,65.9,52.9,66.5,59.1,49.7,93,80,52,30.08,29.91,0,0,0,0.25
2013-4-1,76.8,62.2,52.7,61.6,56.1,48.3,96,82,52,30.09,29.93,0,0,0,0.00
2013-4-2,84.6,64.2,47.7,56.8,51.1,44.8,94,67,35,30.14,30.02,0,0,0,0.00
2013-4-3,63.7,58.3,53.8,59.9,54.9,51.2,96,89,76,30.08,29.74,0,0,0,1.69
2013-4-4,75.6,60.5,54.5,62.9,55.3,50.0,94,83,64,29.97,29.87,0,0,0,0.00
2013-4-5,70.3,56.2,47.1,50.9,47.7,42.1,89,75,48,30.13,29.96,0,0,0,0.00
2013-4-6,78.6,57.9,39.9,55.8,46.2,36.9,91,69,32,30.18,30.10,0,0,0,0.00
2013-4-7,81.3,61.4,44.4,63.6,53.0,40.9,93,76,49,30.15,30.04,0,0,0,0.00
2013-4-8,82.2,69.2,56.8,68.8,62.7,53.2,95,81,62,30.09,29.99,0,0,0,0.00
2013-4-9,84.0,73.7,67.6,71.4,68.1,64.4,95,83,65,30.10,29.98,0,0,0,0.00
2013-4-10,82.4,72.4,64.9,71.7,67.5,62.9,95,85,69,30.05,29.89,0,0,0,0.00
2013-4-11,72.0,71.5,71.1,69.2,68.7,68.0,91,91,90,29.89,29.81,0,0,0,0.00
2013-4-14,65.3,64.1,63.3,63.8,62.7,61.9,95,95,95,29.85,29.80,0,0,0,0.00
2013-4-15,80.4,69.8,63.1,73.8,67.0,61.7,96,91,78,30.05,29.83,0,0,0,0.00
2013-4-16,88.0,74.8,66.2,74.5,69.1,63.2,95,83,62,30.13,30.03,0,0,0,0.00
2013-4-17,86.2,73.6,66.0,74.9,67.9,63.2,96,83,59,30.14,30.02,0,0,0,0.00
2013-4-18,81.1,72.9,64.9,73.1,69.0,63.3,96,88,76,30.02,29.88,0,0,0,0.00
2013-4-19,75.0,56.2,43.2,72.0,53.9,41.5,94,92,80,30.19,29.82,0,0,0,0.95
2013-4-20,70.7,53.7,38.8,46.1,41.8,37.0,95,68,37,30.28,30.13,0,0,0,0.00
2013-4-21,76.5,58.7,40.8,52.7,45.8,37.5,90,66,38,30.24,30.11,0,0,0,0.00
2013-4-22,83.1,64.2,48.7,65.0,56.1,45.0,89,76,51,30.16,30.05,0,0,0,0.00
2013-4-23,82.2,68.0,57.4,67.5,61.1,54.5,94,80,59,30.13,30.05,0,0,0,0.00
2013-4-24,73.8,66.3,59.2,70.0,63.5,56.7,95,91,82,30.16,29.97,0,0,0,0.33
2013-4-25,79.2,64.1,54.3,63.3,55.1,46.3,95,75,51,30.30,30.15,0,0,0,0.00
2013-4-26,84.6,67.5,52.9,60.8,51.3,44.8,78,58,39,30.32,30.22,0,0,0,0.00
2013-4-27,86.2,72.2,56.7,71.1,63.3,53.1,92,75,55,30.23,30.06,0,0,0,0.00
2013-4-28,82.0,73.3,65.3,71.6,66.3,61.7,95,79,65,30.09,29.97,0,0,0,0.00
2013-4-29,87.3,74.7,65.1,68.4,65.7,62.5,92,75,49,30.00,29.90,0,0,0,0.02
2013-4-30,82.9,72.7,65.1,71.1,67.6,63.6,95,85,65,29.97,29.89,0,0,0,0.51
2013-5-1,73.6,68.0,61.7,70.3,66.5,60.5,96,95,87,29.96,29.87,0,0,0,1.18
2013-5-2,72.3,65.7,61.9,67.5,63.9,60.7,97,94,83,29.99,29.88,0,0,0,0.96
2013-5-3,73.2,63.9,48.2,66.7,60.9,46.6,97,90,77,29.98,29.82,0,0,0,0.41
2013-5-4,71.8,56.1,43.5,46.6,42.0,38.9,94,64,31,29.99,29.88,0,0,0,0.04
2013-5-5,69.6,58.0,46.6,56.6,45.4,40.8,91,66,42,30.02,29.86,0,0,0,0.00
2013-5-6,76.3,59.2,45.7,54.6,48.4,40.1,88,69,44,30.03,29.92,0,0,0,0.00
2013-5-7,80.1,63.8,50.0,60.7,54.6,46.5,92,74,50,30.05,29.97,0,0,0,0.00
2013-5-8,85.3,68.5,54.9,66.6,59.7,51.9,93,75,48,30.12,30.02,0,0,0,0.00
2013-5-9,88.9,71.2,56.5,67.8,61.4,53.3,93,74,47,30.16,30.06,0,0,0,0.00
2013-5-10,75.9,67.4,63.7,67.6,63.8,59.8,94,88,72,30.16,29.91,0,0,0,0.39
2013-5-11,78.3,67.9,61.0,70.3,64.6,59.0,96,90,75,30.08,29.95,0,0,0,0.18
2013-5-12,81.5,70.0,61.0,63.3,59.3,53.5,95,71,48,30.14,30.01,0,0,0,0.02
2013-5-13,82.0,65.9,49.6,53.9,47.9,41.3,80,56,30,30.29,30.13,0,0,0,0.00
2013-5-14,90.0,68.3,51.1,61.5,54.8,47.0,90,66,36,30.30,30.17,0,0,0,0.10
2013-5-15,88.5,70.3,55.0,66.0,56.9,51.5,93,66,36,30.23,30.05,0,0,0,0.00
2013-5-16,64.8,64.2,63.5,57.9,57.2,55.7,82,78,73,30.07,30.02,0,0,0,0.00
2013-5-23,97.2,83.4,64.2,74.6,69.8,61.6,94,66,39,30.06,29.98,0,0,0,0.00
2013-5-24,91.2,78.5,66.9,69.8,65.4,55.1,92,67,43,30.18,30.03,0,0,0,0.00
2013-5-25,91.6,73.4,61.5,62.6,55.1,49.6,76,55,27,30.25,30.15,0,0,0,0.02
2013-5-26,92.5,74.3,59.0,67.2,61.9,54.7,90,68,39,30.22,30.14,0,0,0,0.00
2013-5-27,89.4,75.9,64.2,71.0,65.1,58.9,93,72,46,30.18,30.08,0,0,0,0.07
2013-5-28,91.9,73.7,57.9,74.0,65.8,54.7,94,78,52,30.11,30.05,0,0,0,0.02
2013-5-29,89.4,77.9,67.8,75.2,71.1,65.1,95,81,61,30.08,30.01,0,0,0,0.00
2013-5-30,89.2,79.5,73.0,75.5,72.2,69.8,91,79,61,30.08,30.00,0,0,0,0.00
2013-5-31,87.6,79.4,74.5,76.7,72.9,70.4,89,81,65,30.07,29.98,0,0,0,0.00
2013-6-1,89.2,78.7,74.3,79.1,74.4,70.7,94,87,69,30.03,29.96,0,0,0,0.10
2013-6-2,96.6,80.4,70.5,76.7,71.7,68.4,95,77,52,30.01,29.87,0,0,0,0.02
2013-6-3,87.3,77.5,69.4,79.0,73.5,66.7,94,88,73,29.94,29.86,0,0,0,0.73
2013-6-4,90.9,75.8,69.6,77.1,71.9,68.1,96,89,63,29.97,29.90,0,0,0,0.00
2013-6-5,93.9,80.8,67.6,78.7,73.0,65.3,94,79,57,29.98,29.86,0,0,0,0.51
2013-6-6,90.9,70.7,64.9,74.0,66.8,63.5,95,89,58,29.89,29.75,0,0,0,0.02
2013-6-7,90.3,77.9,68.2,74.4,68.9,65.7,94,76,53,29.90,29.79,0,0,0,0.00
2013-6-8,95.0,75.1,68.9,77.9,69.6,65.5,93,84,57,30.07,29.90,0,0,0,0.19
2013-6-9,76.6,72.8,68.9,73.8,70.8,66.6,96,93,90,30.03,29.93,0,0,0,0.36
2013-6-10,82.6,75.1,70.5,78.5,72.7,69.0,96,92,83,30.08,29.98,0,0,0,0.84
2013-6-11,98.8,80.0,70.5,81.5,74.3,68.7,96,84,53,30.12,30.02,0,0,0,0.45
2013-6-12,74.5,73.3,72.3,72.0,71.0,70.2,93,92,92,30.08,30.05,0,0,0,0.00
2013-6-21,80.8,74.7,72.3,74.6,71.7,70.4,94,90,78,30.11,30.07,0,0,0,0.08
2013-6-22,93.4,79.8,69.6,75.7,72.1,67.8,95,79,53,30.13,30.01,0,0,0,0.00
2013-6-23,83.3,76.2,71.8,78.5,73.9,69.3,95,92,82,30.10,30.04,0,0,0,1.08
2013-6-24,82.9,75.5,72.0,79.5,73.6,70.7,96,94,82,30.18,30.09,0,0,0,0.00
2013-6-25,96.1,85.3,71.4,81.0,76.2,69.6,95,75,58,30.14,30.03,0,0,0,0.02
2013-6-26,94.8,81.1,72.3,81.0,74.6,69.6,94,82,61,30.10,29.98,0,0,0,0.00
2013-6-27,98.4,84.0,73.6,81.2,75.6,70.8,94,77,52,30.03,29.92,0,0,0,0.00
2013-6-28,99.0,86.7,78.1,81.7,77.7,75.0,93,76,54,29.94,29.77,0,0,0,0.00
2013-6-29,99.7,84.0,72.7,80.4,74.7,67.8,91,75,52,29.82,29.68,0,0,0,0.47
2013-6-30,96.6,81.6,70.9,76.5,69.3,65.1,95,70,38,29.79,29.71,0,0,0,0.00
2013-7-1,93.0,80.8,70.3,69.6,67.0,64.5,87,65,43,29.92,29.78,0,0,0,0.00
2013-7-2,96.4,80.3,68.2,74.4,68.5,56.2,87,69,48,30.01,29.90,0,0,0,0.02
2013-7-3,90.0,78.9,73.0,76.0,72.0,68.5,90,80,61,30.03,29.94,0,0,0,0.00
2013-7-4,89.4,77.9,71.4,78.3,73.1,68.4,94,86,68,30.01,29.92,0,0,0,0.04
2013-7-5,76.5,74.4,72.1,74.9,72.5,70.2,96,93,90,30.10,29.99,0,0,0,0.47
2013-7-6,76.8,73.5,71.2,74.4,72.0,70.0,97,95,92,30.07,30.00,0,0,0,1.71
2013-7-7,77.5,74.7,72.3,76.3,73.5,71.1,97,96,95,30.13,30.03,0,0,0,0.64
2013-7-8,82.9,75.9,72.5,79.7,74.0,71.4,97,94,84,30.19,30.10,0,0,0,0.04
2013-7-9,94.8,80.4,69.4,81.6,74.2,67.9,96,83,62,30.20,30.09,0,0,0,0.04
2013-7-10,93.6,78.9,72.7,78.5,74.1,70.2,94,86,62,30.13,29.98,0,0,0,0.04
2013-7-11,79.3,75.4,72.1,77.1,73.5,70.3,95,94,90,30.03,29.89,0,0,0,2.45
2013-7-12,74.5,73.2,71.4,73.0,71.7,69.9,95,95,95,29.94,29.89,0,0,0,0.00
2013-7-20,91.6,83.3,78.4,79.0,74.9,72.7,85,76,65,30.02,29.93,0,0,0,0.00
2013-7-21,88.2,78.7,73.9,77.8,73.8,71.5,93,85,71,30.07,30.00,0,0,0,0.04
2013-7-22,84.0,75.3,71.4,79.0,72.8,69.9,95,92,81,30.09,30.01,0,0,0,1.14
2013-7-23,96.3,86.6,74.5,80.9,75.8,70.2,87,71,59,30.01,29.93,0,0,0,0.00
2013-7-24,95.5,82.2,73.6,79.8,75.5,69.8,93,81,56,29.97,29.88,0,0,0,0.02
2013-7-25,94.3,81.1,71.8,77.7,73.2,69.3,95,78,57,30.02,29.88,0,0,0,0.02
2013-7-26,98.2,82.8,71.1,78.2,72.4,68.2,92,73,42,30.06,29.97,0,0,0,0.00
2013-7-27,83.7,76.6,71.4,78.0,72.6,68.4,95,87,77,30.00,29.89,0,0,0,0.53
2013-7-28,90.7,80.0,70.3,79.4,74.7,68.8,96,85,66,30.01,29.87,0,0,0,0.05
2013-7-29,93.0,80.1,74.3,80.6,75.9,72.5,95,88,64,30.13,29.98,0,0,0,0.26
2013-7-30,97.3,83.2,73.6,82.2,76.7,71.7,95,82,61,30.17,30.06,0,0,0,0.00
2013-7-31,93.7,80.8,75.7,80.0,75.7,72.9,93,85,64,30.11,29.98,0,0,0,0.08
2013-8-1,96.6,80.6,72.3,80.7,75.3,70.1,94,85,56,30.02,29.92,0,0,0,0.14
2013-8-2,98.1,81.9,70.7,79.7,73.7,68.9,96,79,46,30.04,29.93,0,0,0,0.00
2013-8-3,98.8,84.1,72.9,78.6,74.3,70.1,94,75,45,30.08,29.99,0,0,0,0.00
2013-8-4,100.2,85.2,76.6,78.4,75.3,72.0,91,74,48,30.09,29.98,0,0,0,0.00
2013-8-5,98.2,80.6,74.1,79.7,74.1,70.6,93,82,54,30.05,29.96,0,0,0,0.35
2013-8-6,100.2,83.0,72.7,82.2,75.8,70.8,95,81,52,30.03,29.90,0,0,0,0.00
2013-8-7,90.9,85.2,79.5,80.8,77.5,74.5,89,78,70,29.98,29.92,0,0,0,0.00
2013-8-8,97.9,91.0,79.0,82.4,78.4,74.8,90,68,54,29.99,29.92,0,0,0,0.00
2013-8-9,95.2,85.0,79.2,79.6,76.3,73.9,84,76,61,30.06,29.97,0,0,0,0.00
2013-8-10,93.7,86.8,76.6,79.7,76.4,72.1,87,72,64,30.10,30.04,0,0,0,0.00
2013-8-11,91.2,80.3,73.0,81.8,76.1,69.5,94,87,67,30.14,30.08,0,0,0,0.67
2013-8-12,87.4,79.5,74.5,81.6,76.8,73.0,96,92,81,30.13,30.03,0,0,0,0.07
2013-8-14,75.7,75.7,75.7,72.3,72.3,72.3,89,89,89,29.95,29.95,0,0,0,0.00
2013-8-15,89.1,83.0,74.8,77.1,74.2,71.3,89,75,65,29.98,29.92,0,0,0,0.00
2013-8-16,88.9,77.7,72.0,75.9,72.5,70.0,95,85,61,30.01,29.93,0,0,0,1.46
2013-8-17,74.1,72.8,71.8,72.6,71.5,70.5,96,96,94,30.02,29.93,0,0,0,0.13
2013-8-18,77.5,73.0,69.6,76.6,71.9,68.4,97,97,96,30.03,29.96,0,0,0,2.71
2013-8-19,94.3,79.0,71.4,81.1,74.7,70.2,97,88,64,30.06,29.98,0,0,0,0.00
2013-8-20,84.9,76.8,69.6,78.8,73.3,67.5,94,89,79,30.10,30.00,0,0,0,0.06
2013-8-21,88.7,77.2,72.1,78.6,74.1,70.6,96,91,69,30.15,30.06,0,0,0,0.00
2013-8-26,85.8,74.3,71.4,72.2,70.7,69.6,95,90,58,30.18,30.11,114,114,114,0.00
2013-8-27,90.5,80.6,64.6,69.5,67.0,61.6,91,65,46,30.12,30.03,114,114,114,0.00
2013-8-28,94.6,89.4,77.4,73.3,71.6,67.9,72,56,50,30.06,30.01,114,114,114,0.00
2013-8-29,99.1,84.3,67.6,73.8,70.4,64.5,90,65,42,30.08,29.98,114,114,114,0.00
2013-8-30,96.1,84.6,70.9,75.3,71.8,66.8,88,67,49,30.04,29.92,114,19,114,0.00
2013-8-31,96.3,82.1,73.4,81.1,73.2,67.6,85,75,59,29.98,29.86,0,0,0,0.00
2013-9-1,95.4,78.2,71.4,79.6,73.3,66.8,94,86,58,29.97,29.88,0,0,0,0.53
2013-9-2,91.8,80.3,74.5,80.4,76.0,72.6,95,87,67,30.00,29.89,0,0,0,0.41
2013-9-3,97.2,79.7,71.2,82.9,73.4,69.0,94,83,60,30.00,29.87,0,0,0,0.39
2013-9-4,81.3,71.5,69.8,74.2,69.6,68.3,95,94,79,30.05,29.97,0,0,0,0.00
2013-9-5,97.5,87.6,77.2,79.1,75.8,72.7,87,69,55,30.10,30.03,0,0,0,0.00
2013-9-6,91.6,85.5,74.5,75.7,73.2,69.7,86,67,56,30.11,29.99,0,0,0,0.00
2013-9-7,95.4,80.1,69.1,74.5,70.6,66.3,92,75,48,30.07,29.97,0,0,0,0.00
2013-9-8,96.6,81.7,70.3,77.0,71.9,67.3,91,74,48,30.01,29.94,0,0,0,0.00
2013-9-9,95.0,80.5,69.6,76.6,71.3,66.6,91,75,53,30.06,29.97,0,0,0,0.00
2013-9-10,92.3,79.7,73.0,76.6,72.0,68.5,89,78,57,30.13,30.03,0,0,0,0.00
2013-9-11,73.6,72.7,72.0,69.8,69.3,68.9,91,89,88,30.11,30.08,0,0,0,0.00
2013-9-12,92.8,83.5,70.3,75.6,72.9,67.2,90,71,54,30.06,29.92,114,114,114,0.00
2013-9-13,95.0,84.1,70.0,75.9,72.7,67.5,92,70,48,29.93,29.83,114,114,114,0.00
2013-9-14,87.3,79.0,72.5,71.0,68.3,66.3,84,70,56,30.00,29.91,114,114,114,0.00
2013-9-15,93.9,80.1,66.7,75.9,69.9,62.3,86,72,51,30.07,29.99,114,114,114,0.00
2013-9-16,97.0,81.4,70.5,76.5,71.8,67.4,93,75,51,30.09,30.00,114,11,114,0.88
2013-9-17,94.8,83.6,73.4,77.1,73.9,71.0,92,74,52,30.08,29.98,0,0,0,0.00
2013-9-18,85.8,78.7,74.3,74.8,72.6,70.9,91,82,66,30.10,30.02,0,0,0,0.00
2013-9-19,90.1,80.0,73.9,75.5,71.9,68.8,89,77,55,30.09,29.99,0,0,0,0.00
2013-9-20,90.3,82.3,74.7,78.3,75.8,72.8,94,81,66,29.99,29.85,0,0,0,0.08
2013-9-21,76.8,75.1,71.2,75.3,73.5,69.7,96,95,93,29.85,29.73,0,0,0,0.49
2013-9-22,80.4,72.6,68.5,71.8,68.1,64.4,96,86,74,29.82,29.75,0,0,0,0.02
2013-9-23,91.4,81.5,66.7,78.0,73.9,63.0,91,78,63,29.89,29.81,0,0,0,0.00
2013-9-24,76.6,75.2,74.7,75.1,73.3,72.6,95,94,91,29.90,29.87,0,0,0,0.02
2013-9-25,91.2,76.8,70.7,75.4,71.2,67.8,96,84,54,29.84,29.77,114,114,114,0.00
2013-9-26,91.6,77.8,68.5,76.6,70.5,66.1,95,79,57,29.96,29.83,114,114,114,0.00
2013-9-27,85.5,74.8,66.0,69.4,66.3,61.4,89,76,56,30.06,29.96,114,114,114,0.00
2013-9-28,86.9,72.1,59.9,68.6,63.1,56.9,91,75,49,30.10,30.02,114,114,114,0.00
2013-9-29,81.5,75.8,62.2,67.5,65.4,58.9,90,71,62,30.07,29.97,114,36,114,0.00
2013-9-30,72.5,70.0,68.4,69.7,67.6,65.4,94,92,90,30.02,29.96,0,0,0,0.02
2013-10-1,89.2,85.1,80.2,72.5,70.9,68.1,71,63,56,30.06,29.98,0,0,0,0.02
2013-10-2,76.1,73.7,71.4,74.0,71.7,69.6,95,93,89,30.09,30.02,0,0,0,0.22
2013-10-3,75.0,72.3,71.4,72.9,70.8,70.2,96,95,92,30.06,29.98,0,0,0,0.44
2013-10-4,88.5,80.2,74.5,77.5,74.1,71.7,91,82,69,30.05,30.01,0,0,0,0.00
2013-10-5,88.5,78.8,72.3,77.6,73.9,70.2,96,86,66,30.05,29.95,0,0,0,0.00
2013-10-6,75.7,72.5,66.6,74.5,70.9,64.1,96,95,91,29.94,29.79,0,0,0,1.68
2013-10-7,77.7,67.6,61.7,64.2,56.3,52.7,93,69,45,30.02,29.88,0,0,0,0.00
2013-10-8,81.7,66.3,52.9,60.9,56.0,49.4,90,71,47,30.03,29.97,0,0,0,0.00
2013-10-9,82.2,70.4,61.0,71.5,64.6,56.1,93,82,69,30.11,30.00,0,0,0,0.00
2013-10-10,66.9,66.3,66.0,64.2,63.8,63.3,92,92,91,30.09,30.08,0,0,0,0.00
2013-10-13,86.5,80.3,69.6,71.8,67.9,63.2,80,66,54,30.17,30.07,114,114,114,0.00
2013-10-14,85.8,76.9,63.7,68.1,65.7,61.0,91,70,52,30.11,30.02,114,1,114,0.00
2013-10-15,84.9,72.1,63.0,70.7,65.3,60.3,93,80,58,30.08,29.96,0,0,0,0.00
2013-10-16,87.3,72.5,62.2,74.0,66.2,59.5,94,81,60,30.04,29.92,0,0,0,0.00
2013-10-17,83.8,74.6,66.9,75.8,69.0,63.0,93,83,74,29.98,29.90,0,0,0,0.06
2013-10-18,78.6,68.9,63.3,64.0,61.1,58.8,89,77,58,30.05,29.92,0,0,0,0.00
2013-10-19,65.5,63.4,61.5,63.4,59.6,57.4,94,87,78,30.03,29.91,0,0,0,0.36
2013-10-20,75.7,67.2,57.9,60.7,57.6,53.9,88,72,58,30.04,29.98,0,0,0,0.00
2013-10-21,73.2,63.6,56.5,63.0,58.3,53.8,91,83,68,30.08,29.98,0,0,0,0.00
2013-10-22,81.7,68.7,61.9,65.1,59.6,54.3,92,75,42,29.99,29.89,0,0,0,0.00
2013-10-23,74.8,61.9,49.6,55.1,48.5,41.8,86,64,35,30.14,29.98,0,0,0,0.00
2013-10-24,82.4,59.1,43.3,56.8,47.5,39.3,89,68,41,30.24,30.12,0,0,0,0.00
2013-10-25,68.5,56.8,46.9,51.9,44.7,35.7,86,66,41,30.39,30.21,0,0,0,0.00
2013-10-26,74.7,54.3,39.9,49.1,41.2,34.4,83,64,37,30.33,30.17,0,0,0,0.00
2013-10-27,76.3,58.7,44.2,59.8,50.6,40.0,92,76,54,30.19,30.10,0,0,0,0.00
2013-10-28,82.0,64.6,53.2,67.1,57.5,49.7,93,79,57,30.22,30.11,0,0,0,0.00
2013-10-29,79.5,65.0,53.4,66.6,58.6,50.5,94,81,61,30.28,30.19,0,0,0,0.00
2013-10-30,79.2,67.0,55.9,70.5,62.2,53.1,94,85,70,30.23,30.08,0,0,0,0.00
2013-10-31,81.5,73.7,66.4,72.2,68.5,63.6,93,84,71,30.09,29.87,0,0,0,0.03
2013-11-1,82.8,69.8,57.7,70.9,63.8,52.1,94,82,52,29.93,29.79,0,0,0,0.08
2013-11-2,76.6,61.1,48.2,56.1,49.6,43.4,91,68,43,30.14,29.90,0,0,0,0.00
2013-11-3,69.1,54.6,43.9,47.7,43.4,38.7,84,68,42,30.24,30.14,0,0,0,0.00
2013-11-4,72.5,58.4,42.3,57.1,49.6,38.0,90,74,56,30.29,30.18,0,0,0,0.00
2013-11-5,74.8,64.7,57.7,61.8,55.7,49.5,78,73,63,30.29,30.16,0,0,0,0.00
2013-11-6,76.8,67.2,58.1,69.2,61.7,52.0,89,82,76,30.18,30.07,0,0,0,0.00
2013-11-7,68.4,60.0,50.2,66.3,53.5,38.4,94,80,62,30.27,30.02,0,0,0,3.02
2013-11-8,66.0,52.3,42.1,40.9,37.3,34.8,76,58,38,30.33,30.18,0,0,0,0.42
2013-11-9,74.5,55.7,39.9,60.2,48.0,34.4,87,76,60,30.27,30.17,0,0,0,0.00
2013-11-10,75.7,61.2,50.5,58.1,52.9,46.1,88,76,53,30.27,30.17,0,0,0,0.02
2013-11-11,77.2,58.2,45.3,54.7,48.6,42.0,90,73,42,30.25,30.14,0,0,0,0.00
2013-11-12,71.4,54.7,41.5,53.9,44.6,25.1,89,70,52,30.44,30.17,0,0,0,10.85
2013-11-13,54.3,41.7,31.8,27.7,24.1,21.2,70,51,34,30.51,30.41,0,0,0,1.33
2013-11-14,31.6,30.5,30.0,24.2,23.1,22.7,76,74,71,30.42,30.39,0,0,0,0.00
2013-11-18,72.0,64.5,56.7,70.4,57.5,42.7,96,79,55,30.09,29.96,0,0,0,0.12
2013-11-19,64.8,54.0,44.4,43.0,40.0,34.9,75,60,43,30.15,30.03,0,0,0,0.00
2013-11-20,72.7,54.0,39.9,59.8,46.5,33.9,91,76,59,30.16,30.05,0,0,0,0.00
2013-11-21,68.7,60.3,54.3,62.2,56.2,51.4,91,87,79,30.25,30.16,0,0,0,0.00
2013-11-22,77.2,72.4,69.4,70.1,66.9,65.0,86,83,79,30.17,30.15,0,0,0,0.00
2013-11-24,52.5,46.2,40.8,30.0,28.5,27.7,60,51,41,30.34,30.29,0,0,0,0.00
2013-11-25,57.9,49.2,39.4,56.2,41.9,27.5,94,76,60,30.31,29.89,0,0,0,0.17
2013-11-26,65.7,51.8,43.2,64.1,49.9,41.3,95,93,90,29.93,29.71,0,0,0,1.08
2013-11-27,49.1,40.5,28.6,41.3,31.1,22.5,93,71,48,30.39,29.93,0,0,0,0.14
2013-11-28,50.5,35.1,25.7,30.2,25.7,21.2,84,70,42,30.49,30.36,0,0,0,0.00
2013-11-29,60.1,39.6,26.2,32.7,27.3,22.4,87,65,31,30.54,30.42,0,0,0,0.00
2013-11-30,68.0,44.8,28.6,50.4,36.4,23.9,86,74,49,30.45,30.27,0,0,0,0.00
2013-12-1,69.6,50.8,36.1,55.1,43.3,32.6,91,77,51,30.29,30.02,0,0,0,0.00
2013-12-2,74.8,58.3,45.3,59.2,50.9,42.2,92,78,55,30.03,29.81,0,0,0,0.00
2013-12-3,75.4,66.8,56.8,67.6,62.5,53.3,94,86,75,29.87,29.78,0,0,0,0.02
2013-12-4,77.5,70.9,64.9,72.1,68.0,62.6,95,91,82,29.98,29.86,0,0,0,0.06
2013-12-5,79.0,74.6,72.3,74.2,71.9,70.5,95,91,84,30.05,29.97,0,0,0,0.02
2013-12-6,79.7,73.0,52.9,74.4,69.7,50.6,93,89,78,30.17,29.98,0,0,0,0.53
2013-12-9,64.9,60.1,57.9,60.0,56.3,54.6,89,87,84,30.08,30.03,11,1,11,0.06
2013-12-10,59.4,46.6,37.8,56.9,41.7,34.1,92,83,72,30.36,30.03,0,0,0,0.21
2013-12-11,63.3,48.0,35.4,44.5,38.4,32.0,88,71,48,30.41,30.30,0,0,0,0.00
2013-12-12,51.1,50.0,48.4,38.5,37.0,34.8,62,61,58,30.41,30.39,0,0,0,0.00
2013-12-27,60.1,54.3,46.0,38.6,37.0,35.7,70,52,43,30.39,30.28,0,0,0,0.00
2013-12-28,52.9,46.9,45.1,45.7,43.7,37.5,94,89,56,30.28,29.94,0,0,0,2.38
2013-12-29,56.7,47.9,38.8,49.9,44.9,36.1,95,89,77,30.13,29.92,0,0,0,0.00
2013-12-30,58.8,47.2,37.0,53.0,43.9,34.6,94,88,79,30.31,30.11,0,0,0,0.00
2013-12-31,49.6,44.8,42.4,46.8,41.0,38.7,91,86,82,30.43,30.29,0,0,0,0.00
2014-1-1,60.1,50.3,42.4,56.6,48.1,40.0,95,92,87,30.34,30.05,0,0,0,0.12
2014-1-2,57.9,50.5,35.2,56.6,45.1,26.4,96,82,61,30.32,29.91,0,0,0,0.21